<?xml version="1.0" encoding="UTF-8" standalone="no" ?>
<gpx xmlns="http://www.topografix.com/GPX/1/1" xmlns:xsi="http://www.w3.org/2001/XMLSchema-instance" xsi:schemaLocation="http://www.topografix.com/GPX/1/1 http://www.topografix.com/GPX/1/1/gpx.xsd" version="1.1" creator="VisuGPX - https://www.visugpx.com">
  <metadata>
    <name>clm GP Henri DESGRANGE</name>
    <desc><![CDATA[Clm GP Henri DESGRANGE . Course cycliste]]></desc>
  </metadata>
  <trk>
    <name><![CDATA[--Condom-- OR-6032260:clm  GP henri desgrange]]></name>
    <trkseg>
      <trkpt lat="43.95647" lon="0.36533">
        <ele>75</ele>
        <time>2016-05-02T19:57:40Z</time>
      </trkpt>
      <trkpt lat="43.95812" lon="0.36809">
        <ele>76</ele>
        <time>2016-05-02T20:13:40Z</time>
      </trkpt>
      <trkpt lat="43.956" lon="0.36936">
        <ele>81</ele>
        <time>2016-05-02T20:33:40Z</time>
      </trkpt>
      <trkpt lat="43.95554" lon="0.37336">
        <ele>97</ele>
        <time>2016-05-02T20:43:40Z</time>
      </trkpt>
      <trkpt lat="43.9701" lon="0.40323">
        <ele>174</ele>
        <time>2016-05-02T20:55:40Z</time>
      </trkpt>
      <trkpt lat="43.9824" lon="0.41594">
        <ele>158</ele>
        <time>2016-05-02T21:01:40Z</time>
      </trkpt>
      <trkpt lat="43.98503" lon="0.41525">
        <ele>150</ele>
        <time>2016-05-02T21:05:40Z</time>
      </trkpt>
      <trkpt lat="43.98758" lon="0.42257">
        <ele>113</ele>
        <time>2016-05-02T21:09:40Z</time>
      </trkpt>
      <trkpt lat="43.99615" lon="0.43167">
        <ele>109</ele>
        <time>2016-05-02T21:15:40Z</time>
      </trkpt>
      <trkpt lat="44.00327" lon="0.4355">
        <ele>96</ele>
        <time>2016-05-02T21:19:40Z</time>
      </trkpt>
      <trkpt lat="44.00652" lon="0.43516">
        <ele>94</ele>
        <time>2016-05-02T21:23:40Z</time>
      </trkpt>
      <trkpt lat="44.00792" lon="0.43779">
        <ele>93</ele>
        <time>2016-05-02T21:27:40Z</time>
      </trkpt>
      <trkpt lat="44.01738" lon="0.44266">
        <ele>97</ele>
        <time>2016-05-02T21:29:40Z</time>
      </trkpt>
      <trkpt lat="44.0231" lon="0.45324">
        <ele>127</ele>
        <time>2016-05-02T21:39:40Z</time>
      </trkpt>
      <trkpt lat="44.02559" lon="0.45456">
        <ele>128</ele>
        <time>2016-05-02T21:41:40Z</time>
      </trkpt>
      <trkpt lat="44.02839" lon="0.46051">
        <ele>118</ele>
        <time>2016-05-02T21:43:40Z</time>
      </trkpt>
      <trkpt lat="44.0288" lon="0.46474">
        <ele>103</ele>
        <time>2016-05-02T21:47:40Z</time>
      </trkpt>
      <trkpt lat="44.03555" lon="0.46938">
        <ele>101</ele>
        <time>2016-05-02T21:49:40Z</time>
      </trkpt>
      <trkpt lat="44.03913" lon="0.481">
        <ele>148</ele>
        <time>2016-05-02T21:53:40Z</time>
      </trkpt>
      <trkpt lat="44.04151" lon="0.48117">
        <ele>159</ele>
        <time>2016-05-02T21:57:40Z</time>
      </trkpt>
      <trkpt lat="44.04126" lon="0.48786">
        <ele>140</ele>
        <time>2016-05-02T22:03:40Z</time>
      </trkpt>
      <trkpt lat="44.04279" lon="0.49101">
        <ele>134</ele>
        <time>2016-05-02T22:05:40Z</time>
      </trkpt>
      <trkpt lat="44.04717" lon="0.49398">
        <ele>123</ele>
        <time>2016-05-02T22:07:40Z</time>
      </trkpt>
      <trkpt lat="44.04894" lon="0.50217">
        <ele>104</ele>
        <time>2016-05-02T22:11:40Z</time>
      </trkpt>
      <trkpt lat="44.05173" lon="0.50571">
        <ele>99</ele>
        <time>2016-05-02T22:15:40Z</time>
      </trkpt>
      <trkpt lat="44.06049" lon="0.50626">
        <ele>106</ele>
        <time>2016-05-02T22:17:40Z</time>
      </trkpt>
      <trkpt lat="44.06316" lon="0.51358">
        <ele>107</ele>
        <time>2016-05-02T22:23:40Z</time>
      </trkpt>
      <trkpt lat="44.06822" lon="0.51095">
        <ele>129</ele>
        <time>2016-05-02T22:29:40Z</time>
      </trkpt>
      <trkpt lat="44.07233" lon="0.51902">
        <ele>108</ele>
        <time>2016-05-02T22:35:40Z</time>
      </trkpt>
      <trkpt lat="44.07632" lon="0.51825">
        <ele>113</ele>
        <time>2016-05-02T22:41:40Z</time>
      </trkpt>
      <trkpt lat="44.08133" lon="0.52237">
        <ele>123</ele>
        <time>2016-05-02T22:47:40Z</time>
      </trkpt>
      <trkpt lat="44.08664" lon="0.53267">
        <ele>143</ele>
        <time>2016-05-02T22:57:40Z</time>
      </trkpt>
      <trkpt lat="44.10223" lon="0.5286">
        <ele>181</ele>
        <time>2016-05-02T23:07:40Z</time>
      </trkpt>
      <trkpt lat="44.10881" lon="0.52271">
        <ele>180</ele>
        <time>2016-05-02T23:11:40Z</time>
      </trkpt>
      <trkpt lat="44.1118" lon="0.52494">
        <ele>190</ele>
        <time>2016-05-02T23:13:40Z</time>
      </trkpt>
      <trkpt lat="44.1156" lon="0.5369">
        <ele>191</ele>
        <time>2016-05-02T23:21:40Z</time>
      </trkpt>
      <trkpt lat="44.12678" lon="0.54397">
        <ele>142</ele>
        <time>2016-05-02T23:27:40Z</time>
      </trkpt>
      <trkpt lat="44.1368" lon="0.55787">
        <ele>100</ele>
        <time>2016-05-02T23:37:40Z</time>
      </trkpt>
      <trkpt lat="44.14148" lon="0.56173">
        <ele>111</ele>
        <time>2016-05-02T23:43:40Z</time>
      </trkpt>
      <trkpt lat="44.14177" lon="0.56397">
        <ele>103</ele>
        <time>2016-05-02T23:45:40Z</time>
      </trkpt>
      <trkpt lat="44.14834" lon="0.56265">
        <ele>139</ele>
        <time>2016-05-02T23:51:40Z</time>
      </trkpt>
      <trkpt lat="44.15491" lon="0.56448">
        <ele>149</ele>
        <time>2016-05-02T23:57:40Z</time>
      </trkpt>
      <trkpt lat="44.15875" lon="0.5681">
        <ele>123</ele>
        <time>2016-05-03T00:03:40Z</time>
      </trkpt>
      <trkpt lat="44.15875" lon="0.57354">
        <ele>94</ele>
        <time>2016-05-03T00:09:40Z</time>
      </trkpt>
      <trkpt lat="44.16355" lon="0.57894">
        <ele>77</ele>
        <time>2016-05-03T00:15:40Z</time>
      </trkpt>
      <trkpt lat="44.16613" lon="0.58801">
        <ele>69</ele>
        <time>2016-05-03T00:27:40Z</time>
      </trkpt>
      <trkpt lat="44.16441" lon="0.60026">
        <ele>72</ele>
        <time>2016-05-03T00:45:40Z</time>
      </trkpt>
      <trkpt lat="44.17334" lon="0.61871">
        <ele>48</ele>
        <time>2016-05-03T01:19:40Z</time>
      </trkpt>
      <trkpt lat="44.18169" lon="0.61468">
        <ele>43</ele>
        <time>2016-05-03T01:33:40Z</time>
      </trkpt>
      <trkpt lat="44.20047" lon="0.6121">
        <ele>46</ele>
        <time>2016-05-03T01:53:40Z</time>
      </trkpt>
    </trkseg>
  </trk>
  <rte>
    <name><![CDATA[--Condom-- OR-6032260:clm  GP henri desgrange]]></name>
    <desc><![CDATA[Generated from track --Condom-- OR-6032260:clm  GP henri desgrange]]></desc>
      <rtept lat="43.95647" lon="0.36533">
        <ele>75</ele>
        <name><![CDATA[RPT001]]></name>
      </rtept>
      <rtept lat="43.95812" lon="0.36809">
        <ele>76</ele>
        <name><![CDATA[RPT002]]></name>
      </rtept>
      <rtept lat="43.956" lon="0.36936">
        <ele>81</ele>
        <name><![CDATA[RPT003]]></name>
      </rtept>
      <rtept lat="43.95554" lon="0.37336">
        <ele>97</ele>
        <name><![CDATA[RPT004]]></name>
      </rtept>
      <rtept lat="43.9701" lon="0.40323">
        <ele>174</ele>
        <name><![CDATA[RPT005]]></name>
      </rtept>
      <rtept lat="43.9824" lon="0.41594">
        <ele>158</ele>
        <name><![CDATA[RPT006]]></name>
      </rtept>
      <rtept lat="43.98503" lon="0.41525">
        <ele>150</ele>
        <name><![CDATA[RPT007]]></name>
      </rtept>
      <rtept lat="43.98758" lon="0.42257">
        <ele>113</ele>
        <name><![CDATA[RPT008]]></name>
      </rtept>
      <rtept lat="43.99615" lon="0.43167">
        <ele>109</ele>
        <name><![CDATA[RPT009]]></name>
      </rtept>
      <rtept lat="44.00327" lon="0.4355">
        <ele>96</ele>
        <name><![CDATA[RPT010]]></name>
      </rtept>
      <rtept lat="44.00652" lon="0.43516">
        <ele>94</ele>
        <name><![CDATA[RPT011]]></name>
      </rtept>
      <rtept lat="44.00792" lon="0.43779">
        <ele>93</ele>
        <name><![CDATA[RPT012]]></name>
      </rtept>
      <rtept lat="44.01738" lon="0.44266">
        <ele>97</ele>
        <name><![CDATA[RPT013]]></name>
      </rtept>
      <rtept lat="44.0231" lon="0.45324">
        <ele>127</ele>
        <name><![CDATA[RPT014]]></name>
      </rtept>
      <rtept lat="44.02559" lon="0.45456">
        <ele>128</ele>
        <name><![CDATA[RPT015]]></name>
      </rtept>
      <rtept lat="44.02839" lon="0.46051">
        <ele>118</ele>
        <name><![CDATA[RPT016]]></name>
      </rtept>
      <rtept lat="44.0288" lon="0.46474">
        <ele>103</ele>
        <name><![CDATA[RPT017]]></name>
      </rtept>
      <rtept lat="44.03555" lon="0.46938">
        <ele>101</ele>
        <name><![CDATA[RPT018]]></name>
      </rtept>
      <rtept lat="44.03913" lon="0.481">
        <ele>148</ele>
        <name><![CDATA[RPT019]]></name>
      </rtept>
      <rtept lat="44.04151" lon="0.48117">
        <ele>159</ele>
        <name><![CDATA[RPT020]]></name>
      </rtept>
      <rtept lat="44.04126" lon="0.48786">
        <ele>140</ele>
        <name><![CDATA[RPT021]]></name>
      </rtept>
      <rtept lat="44.04279" lon="0.49101">
        <ele>134</ele>
        <name><![CDATA[RPT022]]></name>
      </rtept>
      <rtept lat="44.04717" lon="0.49398">
        <ele>123</ele>
        <name><![CDATA[RPT023]]></name>
      </rtept>
      <rtept lat="44.04894" lon="0.50217">
        <ele>104</ele>
        <name><![CDATA[RPT024]]></name>
      </rtept>
      <rtept lat="44.05173" lon="0.50571">
        <ele>99</ele>
        <name><![CDATA[RPT025]]></name>
      </rtept>
      <rtept lat="44.06049" lon="0.50626">
        <ele>106</ele>
        <name><![CDATA[RPT026]]></name>
      </rtept>
      <rtept lat="44.06316" lon="0.51358">
        <ele>107</ele>
        <name><![CDATA[RPT027]]></name>
      </rtept>
      <rtept lat="44.06822" lon="0.51095">
        <ele>129</ele>
        <name><![CDATA[RPT028]]></name>
      </rtept>
      <rtept lat="44.07233" lon="0.51902">
        <ele>108</ele>
        <name><![CDATA[RPT029]]></name>
      </rtept>
      <rtept lat="44.07632" lon="0.51825">
        <ele>113</ele>
        <name><![CDATA[RPT030]]></name>
      </rtept>
      <rtept lat="44.08133" lon="0.52237">
        <ele>123</ele>
        <name><![CDATA[RPT031]]></name>
      </rtept>
      <rtept lat="44.08664" lon="0.53267">
        <ele>143</ele>
        <name><![CDATA[RPT032]]></name>
      </rtept>
      <rtept lat="44.10223" lon="0.5286">
        <ele>181</ele>
        <name><![CDATA[RPT033]]></name>
      </rtept>
      <rtept lat="44.10881" lon="0.52271">
        <ele>180</ele>
        <name><![CDATA[RPT034]]></name>
      </rtept>
      <rtept lat="44.1118" lon="0.52494">
        <ele>190</ele>
        <name><![CDATA[RPT035]]></name>
      </rtept>
      <rtept lat="44.1156" lon="0.5369">
        <ele>191</ele>
        <name><![CDATA[RPT036]]></name>
      </rtept>
      <rtept lat="44.12678" lon="0.54397">
        <ele>142</ele>
        <name><![CDATA[RPT037]]></name>
      </rtept>
      <rtept lat="44.1368" lon="0.55787">
        <ele>100</ele>
        <name><![CDATA[RPT038]]></name>
      </rtept>
      <rtept lat="44.14148" lon="0.56173">
        <ele>111</ele>
        <name><![CDATA[RPT039]]></name>
      </rtept>
      <rtept lat="44.14177" lon="0.56397">
        <ele>103</ele>
        <name><![CDATA[RPT040]]></name>
      </rtept>
      <rtept lat="44.14834" lon="0.56265">
        <ele>139</ele>
        <name><![CDATA[RPT041]]></name>
      </rtept>
      <rtept lat="44.15491" lon="0.56448">
        <ele>149</ele>
        <name><![CDATA[RPT042]]></name>
      </rtept>
      <rtept lat="44.15875" lon="0.5681">
        <ele>123</ele>
        <name><![CDATA[RPT043]]></name>
      </rtept>
      <rtept lat="44.15875" lon="0.57354">
        <ele>94</ele>
        <name><![CDATA[RPT044]]></name>
      </rtept>
      <rtept lat="44.16355" lon="0.57894">
        <ele>77</ele>
        <name><![CDATA[RPT045]]></name>
      </rtept>
      <rtept lat="44.16613" lon="0.58801">
        <ele>69</ele>
        <name><![CDATA[RPT046]]></name>
      </rtept>
      <rtept lat="44.16441" lon="0.60026">
        <ele>72</ele>
        <name><![CDATA[RPT047]]></name>
      </rtept>
      <rtept lat="44.17334" lon="0.61871">
        <ele>48</ele>
        <name><![CDATA[RPT048]]></name>
      </rtept>
      <rtept lat="44.18169" lon="0.61468">
        <ele>43</ele>
        <name><![CDATA[RPT049]]></name>
      </rtept>
      <rtept lat="44.20047" lon="0.6121">
        <ele>46</ele>
        <name><![CDATA[RPT050]]></name>
      </rtept>
    </rte>
</gpx>